Time,TemperatureF,DewpointF,PressureIn,WindDirection,WindDirectionDegrees,WindSpeedMPH,WindSpeedGustMPH,Humidity,HourlyPrecipIn,Conditions,Clouds,dailyrainin,SoftwareType,DateUTC
2013-07-25 00:00:00,63.5,57.9,30.05,ESE,102,0.0,1.0,82,0.00,,SKC,0.00,VWS V12.07,2013-07-25 05:00:00,
2013-07-25 00:07:00,62.5,56.9,30.05,East,101,0.0,0.0,82,0.00,,SKC,0.00,VWS V12.07,2013-07-25 05:07:00,
2013-07-25 00:14:00,61.8,57.2,30.05,ESE,102,0.0,0.0,85,0.00,,SKC,0.00,VWS V12.07,2013-07-25 05:14:00,
2013-07-25 00:20:00,61.3,57.4,30.05,ESE,102,0.0,0.0,87,0.00,,SKC,0.00,VWS V12.07,2013-07-25 05:20:00,
2013-07-25 00:27:00,60.8,56.6,30.06,East,101,0.0,0.0,86,0.00,,SKC,0.00,VWS V12.07,2013-07-25 05:27:00,
2013-07-25 00:34:00,60.7,56.8,30.06,ESE,102,0.0,0.0,87,0.00,,SKC,0.00,VWS V12.07,2013-07-25 05:34:00,
2013-07-25 00:40:00,60.6,56.7,30.06,ESE,102,0.0,0.0,87,0.00,,SKC,0.00,VWS V12.07,2013-07-25 05:40:00,
2013-07-25 00:47:00,60.3,56.4,30.06,ESE,102,0.0,0.0,87,0.00,,SKC,0.00,VWS V12.07,2013-07-25 05:47:00,
2013-07-25 00:54:00,59.9,56.7,30.06,ESE,102,0.0,0.0,89,0.00,,SKC,0.00,VWS V12.07,2013-07-25 05:54:00,
2013-07-25 01:00:00,59.5,56.3,30.06,ESE,102,0.0,0.0,89,0.00,,SKC,0.00,VWS V12.07,2013-07-25 06:00:00,
2013-07-25 01:07:00,59.5,56.6,30.06,ESE,102,0.0,0.0,90,0.00,,SKC,0.00,VWS V12.07,2013-07-25 06:07:00,
2013-07-25 01:14:00,59.6,56.4,30.06,East,101,0.0,0.0,89,0.00,,SKC,0.00,VWS V12.07,2013-07-25 06:14:00,
2013-07-25 01:20:00,59.5,56.6,30.06,ESE,102,0.0,0.0,90,0.00,,SKC,0.00,VWS V12.07,2013-07-25 06:20:00,
2013-07-25 01:27:00,59.6,57.0,30.06,East,101,0.0,0.0,91,0.00,,SKC,0.00,VWS V12.07,2013-07-25 06:27:00,
2013-07-25 01:34:00,59.3,56.7,30.05,East,101,0.0,0.0,91,0.00,,SKC,0.00,VWS V12.07,2013-07-25 06:34:00,
2013-07-25 01:40:00,59.0,56.4,30.05,ESE,102,0.0,0.0,91,0.00,,SKC,0.00,VWS V12.07,2013-07-25 06:40:00,
2013-07-25 01:47:00,58.6,56.0,30.06,ESE,102,0.0,0.0,91,0.00,,SKC,0.00,VWS V12.07,2013-07-25 06:47:00,
2013-07-25 01:53:00,58.4,55.8,30.06,ESE,102,0.0,0.0,91,0.00,,SKC,0.00,VWS V12.07,2013-07-25 06:53:00,
2013-07-25 01:58:00,58.2,55.6,30.06,ESE,102,0.0,0.0,91,0.00,,SKC,0.00,VWS V12.07,2013-07-25 06:58:00,
2013-07-25 02:05:00,58.5,56.2,30.06,ESE,102,0.0,0.0,92,0.00,,SKC,0.00,VWS V12.07,2013-07-25 07:05:00,
2013-07-25 02:11:00,58.3,55.7,30.06,ESE,102,0.0,0.0,91,0.00,,SKC,0.00,VWS V12.07,2013-07-25 07:11:00,
2013-07-25 02:17:00,58.0,55.4,30.06,ESE,102,0.0,0.0,91,0.00,,SKC,0.00,VWS V12.07,2013-07-25 07:17:00,
2013-07-25 02:23:00,57.4,54.8,30.06,ESE,102,0.0,0.0,91,0.00,,SKC,0.00,VWS V12.07,2013-07-25 07:23:00,
2013-07-25 02:30:00,57.2,55.2,30.06,ESE,102,0.0,0.0,93,0.00,,SKC,0.00,VWS V12.07,2013-07-25 07:30:00,
2013-07-25 02:36:00,57.2,55.5,30.06,East,101,0.0,0.0,94,0.00,,SKC,0.00,VWS V12.07,2013-07-25 07:36:00,
2013-07-25 02:41:00,57.2,55.5,30.06,ESE,102,0.0,0.0,94,0.00,,SKC,0.00,VWS V12.07,2013-07-25 07:41:00,
2013-07-25 02:48:00,57.1,55.7,30.07,ESE,102,0.0,0.0,95,0.00,,SKC,0.00,VWS V12.07,2013-07-25 07:48:00,
2013-07-25 02:55:00,57.3,55.9,30.07,ESE,102,0.0,0.0,95,0.00,,SKC,0.00,VWS V12.07,2013-07-25 07:55:00,
2013-07-25 03:03:00,57.3,55.9,30.06,ESE,102,0.0,0.0,95,0.00,,SKC,0.00,VWS V12.07,2013-07-25 08:03:00,
2013-07-25 03:10:00,57.1,55.4,30.07,East,101,0.0,0.0,94,0.00,,SKC,0.00,VWS V12.07,2013-07-25 08:10:00,
2013-07-25 03:15:00,57.0,55.6,30.07,East,101,0.0,0.0,95,0.00,,SKC,0.00,VWS V12.07,2013-07-25 08:15:00,
2013-07-25 03:22:00,57.3,55.9,30.07,East,101,0.0,0.0,95,0.00,,SKC,0.00,VWS V12.07,2013-07-25 08:22:00,
2013-07-25 03:28:00,57.7,56.3,30.07,ESE,102,0.0,0.0,95,0.00,,SKC,0.00,VWS V12.07,2013-07-25 08:28:00,
2013-07-25 03:34:00,57.6,56.2,30.07,East,101,0.0,0.0,95,0.00,,SKC,0.00,VWS V12.07,2013-07-25 08:34:00,
2013-07-25 03:42:00,57.5,56.1,30.07,ESE,102,0.0,0.0,95,0.00,,SKC,0.00,VWS V12.07,2013-07-25 08:42:00,
2013-07-25 03:48:00,57.4,56.0,30.07,ESE,102,0.0,0.0,95,0.00,,SKC,0.00,VWS V12.07,2013-07-25 08:48:00,
2013-07-25 03:54:00,57.2,55.8,30.07,East,101,0.0,0.0,95,0.00,,SKC,0.00,VWS V12.07,2013-07-25 08:54:00,
2013-07-25 04:02:00,57.2,56.1,30.07,East,101,0.0,0.0,96,0.00,,SKC,0.00,VWS V12.07,2013-07-25 09:02:00,
2013-07-25 04:08:00,57.0,55.9,30.07,East,101,0.0,0.0,96,0.00,,SKC,0.00,VWS V12.07,2013-07-25 09:08:00,
2013-07-25 04:14:00,56.7,55.3,30.07,East,101,0.0,0.0,95,0.00,,SKC,0.00,VWS V12.07,2013-07-25 09:14:00,
2013-07-25 04:22:00,56.2,54.8,30.07,East,101,0.0,0.0,95,0.00,,SKC,0.00,VWS V12.07,2013-07-25 09:22:00,
2013-07-25 04:28:00,55.9,54.8,30.08,ESE,102,0.0,0.0,96,0.00,,SKC,0.00,VWS V12.07,2013-07-25 09:28:00,
2013-07-25 04:33:00,56.0,54.9,30.08,East,101,0.0,0.0,96,0.00,,SKC,0.00,VWS V12.07,2013-07-25 09:33:00,
2013-07-25 04:40:00,56.0,54.9,30.08,ESE,102,0.0,0.0,96,0.00,,SKC,0.00,VWS V12.07,2013-07-25 09:40:00,
2013-07-25 04:47:00,56.0,55.2,30.08,East,101,0.0,0.0,97,0.00,,SKC,0.00,VWS V12.07,2013-07-25 09:47:00,
2013-07-25 04:53:00,56.1,55.3,30.09,ESE,102,0.0,0.0,97,0.00,,SKC,0.00,VWS V12.07,2013-07-25 09:53:00,
2013-07-25 05:00:00,56.4,55.6,30.09,ESE,102,0.0,0.0,97,0.00,,SKC,0.00,VWS V12.07,2013-07-25 10:00:00,
2013-07-25 05:07:00,56.8,56.2,30.09,ESE,102,0.0,0.0,98,0.00,,SKC,0.00,VWS V12.07,2013-07-25 10:07:00,
2013-07-25 05:14:00,56.7,55.9,30.08,ESE,102,0.0,0.0,97,0.00,,SKC,0.00,VWS V12.07,2013-07-25 10:14:00,
2013-07-25 05:20:00,57.0,56.4,30.08,East,101,0.0,0.0,98,0.00,,SKC,0.00,VWS V12.07,2013-07-25 10:20:00,
2013-07-25 05:27:00,57.0,56.4,30.09,ESE,102,0.0,0.0,98,0.00,,SKC,0.00,VWS V12.07,2013-07-25 10:27:00,
2013-07-25 05:34:00,57.1,56.5,30.08,East,101,0.0,0.0,98,0.00,,SKC,0.00,VWS V12.07,2013-07-25 10:34:00,
2013-07-25 05:40:00,57.2,56.6,30.08,ESE,102,0.0,0.0,98,0.00,,SKC,0.00,VWS V12.07,2013-07-25 10:40:00,
2013-07-25 05:47:00,57.5,56.9,30.08,ESE,102,0.0,0.0,98,0.00,,SKC,0.00,VWS V12.07,2013-07-25 10:47:00,
2013-07-25 05:53:00,57.1,56.3,30.09,ESE,102,0.0,0.0,97,0.00,,SKC,0.00,VWS V12.07,2013-07-25 10:53:00,
2013-07-25 05:59:00,56.7,55.9,30.09,East,101,0.0,0.0,97,0.00,,SKC,0.00,VWS V12.07,2013-07-25 10:59:00,
2013-07-25 06:05:00,56.4,55.6,30.09,East,101,0.0,0.0,97,0.00,,SKC,0.00,VWS V12.07,2013-07-25 11:05:00,
2013-07-25 06:12:00,56.7,56.1,30.09,ESE,102,0.0,0.0,98,0.00,,SKC,0.00,VWS V12.07,2013-07-25 11:12:00,
2013-07-25 06:18:00,56.8,56.2,30.09,ESE,102,0.0,0.0,98,0.00,,SKC,0.00,VWS V12.07,2013-07-25 11:18:00,
2013-07-25 06:25:00,56.9,56.3,30.09,East,101,0.0,0.0,98,0.00,,SKC,0.00,VWS V12.07,2013-07-25 11:25:00,
2013-07-25 06:32:00,57.5,56.9,30.09,East,101,0.0,0.0,98,0.00,,SKC,0.00,VWS V12.07,2013-07-25 11:32:00,
2013-07-25 06:38:00,57.5,56.9,30.09,ESE,103,0.0,0.0,98,0.00,,SKC,0.00,VWS V12.07,2013-07-25 11:38:00,
2013-07-25 06:45:00,58.1,57.5,30.09,ESE,103,0.0,0.0,98,0.00,,SKC,0.00,VWS V12.07,2013-07-25 11:45:00,
2013-07-25 06:52:00,59.4,58.8,30.09,ESE,103,0.0,0.0,98,0.00,,SKC,0.00,VWS V12.07,2013-07-25 11:52:00,
2013-07-25 06:58:00,60.8,60.2,30.09,ESE,103,0.0,0.0,98,0.00,,SKC,0.00,VWS V12.07,2013-07-25 11:58:00,
2013-07-25 07:05:00,60.2,59.3,30.10,ESE,103,0.0,0.0,97,0.00,,SKC,0.00,VWS V12.07,2013-07-25 12:05:00,
2013-07-25 07:11:00,60.1,59.2,30.10,ESE,103,0.0,0.0,97,0.00,,SKC,0.00,VWS V12.07,2013-07-25 12:11:00,
2013-07-25 07:17:00,60.7,59.8,30.10,ESE,103,0.0,0.0,97,0.00,,SKC,0.00,VWS V12.07,2013-07-25 12:17:00,
2013-07-25 07:23:00,60.7,59.6,30.10,ESE,103,0.0,0.0,96,0.00,,SKC,0.00,VWS V12.07,2013-07-25 12:23:00,
2013-07-25 07:29:00,61.2,60.0,30.10,ESE,103,0.0,0.0,96,0.00,,SKC,0.00,VWS V12.07,2013-07-25 12:29:00,
2013-07-25 07:35:00,61.9,60.8,30.10,ESE,103,0.0,0.0,96,0.00,,SKC,0.00,VWS V12.07,2013-07-25 12:35:00,
2013-07-25 07:40:00,63.0,61.8,30.09,ESE,103,0.0,0.0,96,0.00,,SKC,0.00,VWS V12.07,2013-07-25 12:40:00,
2013-07-25 07:47:00,63.8,62.0,30.10,ESE,103,0.0,0.0,94,0.00,,SKC,0.00,VWS V12.07,2013-07-25 12:47:00,
2013-07-25 07:53:00,63.6,61.2,30.10,ESE,103,0.0,0.0,92,0.00,,SKC,0.00,VWS V12.07,2013-07-25 12:53:00,
2013-07-25 07:59:00,64.1,61.7,30.10,ESE,103,0.0,0.0,92,0.00,,SKC,0.00,VWS V12.07,2013-07-25 12:59:00,
2013-07-25 08:07:00,65.0,61.7,30.10,ESE,103,0.0,0.0,89,0.00,,SKC,0.00,VWS V12.07,2013-07-25 13:07:00,
2013-07-25 08:13:00,66.2,62.5,30.10,ESE,103,0.0,0.0,88,0.00,,SKC,0.00,VWS V12.07,2013-07-25 13:13:00,
2013-07-25 08:20:00,67.8,63.5,30.10,SSE,159,0.0,0.0,86,0.00,,SKC,0.00,VWS V12.07,2013-07-25 13:20:00,
2013-07-25 08:27:00,68.6,63.2,30.09,SE,138,0.0,0.0,83,0.00,,SKC,0.00,VWS V12.07,2013-07-25 13:27:00,
2013-07-25 08:34:00,69.5,63.1,30.09,WSW,240,1.0,1.0,80,0.00,,SKC,0.00,VWS V12.07,2013-07-25 13:34:00,
2013-07-25 08:39:00,69.8,62.3,30.09,WSW,249,0.0,1.0,77,0.00,,SKC,0.00,VWS V12.07,2013-07-25 13:39:00,
2013-07-25 08:47:00,70.5,62.6,30.09,SE,139,0.0,1.0,76,0.00,,SKC,0.00,VWS V12.07,2013-07-25 13:47:00,
2013-07-25 08:53:00,71.0,63.4,30.10,SSE,153,0.0,1.0,77,0.00,,SKC,0.00,VWS V12.07,2013-07-25 13:53:00,
2013-07-25 08:59:00,71.6,63.6,30.10,ESE,120,0.0,1.0,76,0.00,,SKC,0.00,VWS V12.07,2013-07-25 13:59:00,
2013-07-25 09:05:00,71.8,61.1,30.10,SE,139,2.0,3.0,69,0.00,,SKC,0.00,VWS V12.07,2013-07-25 14:05:00,
2013-07-25 09:12:00,71.6,60.9,30.11,SE,135,0.0,3.0,69,0.00,,SKC,0.00,VWS V12.07,2013-07-25 14:12:00,
2013-07-25 09:18:00,72.4,61.2,30.12,SSW,207,0.0,3.0,68,0.00,,SKC,0.00,VWS V12.07,2013-07-25 14:18:00,
2013-07-25 09:24:00,73.0,61.8,30.12,SSE,160,0.0,3.0,68,0.00,,SKC,0.00,VWS V12.07,2013-07-25 14:24:00,
2013-07-25 09:30:00,73.7,62.1,30.11,NW,309,0.0,3.0,67,0.00,,SKC,0.00,VWS V12.07,2013-07-25 14:30:00,
2013-07-25 09:37:00,73.4,62.6,30.11,NNW,333,0.0,0.0,69,0.00,,SKC,0.00,VWS V12.07,2013-07-25 14:37:00,
2013-07-25 09:44:00,74.2,63.0,30.11,West,281,0.0,2.0,68,0.00,,SKC,0.00,VWS V12.07,2013-07-25 14:44:00,
2013-07-25 09:50:00,74.7,60.8,30.11,SW,218,0.0,3.0,62,0.00,,SKC,0.00,VWS V12.07,2013-07-25 14:50:00,
2013-07-25 09:56:00,75.4,61.5,30.11,West,280,0.0,3.0,62,0.00,,SKC,0.00,VWS V12.07,2013-07-25 14:56:00,
2013-07-25 10:02:00,75.7,60.8,30.11,ENE,77,0.0,0.0,60,0.00,,SKC,0.00,VWS V12.07,2013-07-25 15:02:00,
2013-07-25 10:08:00,76.2,62.7,30.11,SW,231,0.0,2.0,63,0.00,,SKC,0.00,VWS V12.07,2013-07-25 15:08:00,
2013-07-25 10:15:00,76.4,61.0,30.11,SSW,203,1.0,4.0,59,0.00,,SKC,0.00,VWS V12.07,2013-07-25 15:15:00,
2013-07-25 10:22:00,76.2,60.4,30.12,ESE,106,0.0,4.0,58,0.00,,SKC,0.00,VWS V12.07,2013-07-25 15:22:00,
2013-07-25 10:29:00,76.0,60.7,30.11,ESE,115,0.0,4.0,59,0.00,,SKC,0.00,VWS V12.07,2013-07-25 15:29:00,
2013-07-25 10:35:00,76.2,60.4,30.12,SE,127,2.0,3.0,58,0.00,,SKC,0.00,VWS V12.07,2013-07-25 15:35:00,
2013-07-25 10:42:00,76.0,60.2,30.12,WNW,297,0.0,4.0,58,0.00,,SKC,0.00,VWS V12.07,2013-07-25 15:42:00,
2013-07-25 10:49:00,76.1,60.8,30.12,East,92,1.0,4.0,59,0.00,,SKC,0.00,VWS V12.07,2013-07-25 15:49:00,
2013-07-25 10:55:00,76.3,60.9,30.12,NW,316,0.0,5.0,59,0.00,,SKC,0.00,VWS V12.07,2013-07-25 15:55:00,
2013-07-25 11:02:00,76.4,61.5,30.12,WNW,300,3.0,4.0,60,0.00,,SKC,0.00,VWS V12.07,2013-07-25 16:02:00,
2013-07-25 11:09:00,76.7,62.2,30.12,WNW,300,3.0,4.0,61,0.00,,SKC,0.00,VWS V12.07,2013-07-25 16:09:00,
2013-07-25 11:15:00,76.3,60.0,30.12,WNW,302,1.0,6.0,57,0.00,,SKC,0.00,VWS V12.07,2013-07-25 16:15:00,
2013-07-25 11:22:00,76.2,60.8,30.11,NW,314,3.0,6.0,59,0.00,,SKC,0.00,VWS V12.07,2013-07-25 16:22:00,
2013-07-25 11:29:00,77.2,62.7,30.11,SE,146,2.0,6.0,61,0.00,,SKC,0.00,VWS V12.07,2013-07-25 16:29:00,
2013-07-25 11:36:00,78.0,61.5,30.11,SE,135,2.0,6.0,57,0.00,,SKC,0.00,VWS V12.07,2013-07-25 16:36:00,
2013-07-25 11:42:00,78.4,62.4,30.11,NNW,328,0.0,6.0,58,0.00,,SKC,0.00,VWS V12.07,2013-07-25 16:42:00,
2013-07-25 11:50:00,78.9,61.9,30.11,East,79,0.0,6.0,56,0.00,,SKC,0.00,VWS V12.07,2013-07-25 16:50:00,
2013-07-25 11:57:00,79.2,62.2,30.11,NNW,338,0.0,6.0,56,0.00,,SKC,0.00,VWS V12.07,2013-07-25 16:57:00,
2013-07-25 12:04:00,79.3,61.8,30.11,ENE,64,1.0,3.0,55,0.00,,SKC,0.00,VWS V12.07,2013-07-25 17:04:00,
2013-07-25 12:10:00,78.6,61.6,30.11,West,280,0.0,5.0,56,0.00,,SKC,0.00,VWS V12.07,2013-07-25 17:10:00,
2013-07-25 12:17:00,78.7,61.7,30.11,SW,222,2.0,5.0,56,0.00,,SKC,0.00,VWS V12.07,2013-07-25 17:17:00,
2013-07-25 12:24:00,79.2,61.7,30.10,South,191,1.0,5.0,55,0.00,,SKC,0.00,VWS V12.07,2013-07-25 17:24:00,
2013-07-25 12:30:00,79.7,62.6,30.10,SW,215,3.0,5.0,56,0.00,,SKC,0.00,VWS V12.07,2013-07-25 17:30:00,
2013-07-25 12:37:00,80.5,62.3,30.10,East,100,0.0,3.0,54,0.00,,SKC,0.00,VWS V12.07,2013-07-25 17:37:00,
2013-07-25 12:44:00,80.7,62.5,30.10,SE,131,3.0,5.0,54,0.00,,SKC,0.00,VWS V12.07,2013-07-25 17:44:00,
2013-07-25 12:50:00,81.0,62.3,30.10,NNW,330,4.0,5.0,53,0.00,,SKC,0.00,VWS V12.07,2013-07-25 17:50:00,
2013-07-25 12:57:00,80.7,62.0,30.09,South,187,5.0,5.0,53,0.00,,SKC,0.00,VWS V12.07,2013-07-25 17:57:00,
2013-07-25 13:04:00,80.8,61.5,30.10,WNW,302,0.0,5.0,52,0.00,,SKC,0.00,VWS V12.07,2013-07-25 18:04:00,
2013-07-25 13:10:00,80.5,61.3,30.09,West,266,0.0,5.0,52,0.00,,SKC,0.00,VWS V12.07,2013-07-25 18:10:00,
2013-07-25 13:17:00,81.6,63.4,30.09,SSE,150,4.0,5.0,54,0.00,,SKC,0.00,VWS V12.07,2013-07-25 18:17:00,
2013-07-25 13:24:00,81.7,64.0,30.09,South,179,3.0,5.0,55,0.00,,SKC,0.00,VWS V12.07,2013-07-25 18:24:00,
2013-07-25 13:31:00,82.2,62.3,30.09,ESE,120,1.0,1.0,51,0.00,,SKC,0.00,VWS V12.07,2013-07-25 18:31:00,
2013-07-25 13:37:00,82.3,63.5,30.09,West,270,0.0,4.0,53,0.00,,SKC,0.00,VWS V12.07,2013-07-25 18:37:00,
2013-07-25 13:44:00,82.8,62.8,30.09,ESE,106,0.0,5.0,51,0.00,,SKC,0.00,VWS V12.07,2013-07-25 18:44:00,
2013-07-25 13:51:00,82.5,61.4,30.08,SE,145,1.0,5.0,49,0.00,,SKC,0.00,VWS V12.07,2013-07-25 18:51:00,
2013-07-25 13:57:00,82.6,62.1,30.08,SSE,151,2.0,5.0,50,0.00,,SKC,0.00,VWS V12.07,2013-07-25 18:57:00,
2013-07-25 14:04:00,82.6,62.1,30.08,SE,143,7.0,7.0,50,0.00,,SKC,0.00,VWS V12.07,2013-07-25 19:04:00,
2013-07-25 14:10:00,81.5,61.1,30.08,SSE,150,5.0,8.0,50,0.00,,SKC,0.00,VWS V12.07,2013-07-25 19:10:00,
2013-07-25 14:17:00,81.7,60.7,30.08,SSE,155,2.0,8.0,49,0.00,,SKC,0.00,VWS V12.07,2013-07-25 19:17:00,
2013-07-25 14:24:00,81.9,60.9,30.08,ESE,106,0.0,8.0,49,0.00,,SKC,0.00,VWS V12.07,2013-07-25 19:24:00,
2013-07-25 14:30:00,82.1,62.2,30.08,WNW,282,1.0,8.0,51,0.00,,SKC,0.00,VWS V12.07,2013-07-25 19:30:00,
2013-07-25 14:37:00,82.6,60.9,30.08,NNW,333,2.0,3.0,48,0.00,,SKC,0.00,VWS V12.07,2013-07-25 19:37:00,
2013-07-25 14:44:00,82.6,63.2,30.07,West,270,3.0,4.0,52,0.00,,SKC,0.00,VWS V12.07,2013-07-25 19:44:00,
2013-07-25 14:50:00,83.5,61.8,30.07,NW,311,4.0,5.0,48,0.00,,SKC,0.00,VWS V12.07,2013-07-25 19:50:00,
2013-07-25 14:59:00,83.5,61.8,30.07,SE,143,1.0,5.0,48,0.00,,SKC,0.00,VWS V12.07,2013-07-25 19:59:00,
2013-07-25 15:06:00,82.1,63.3,30.07,SSE,162,0.0,4.0,53,0.00,,SKC,0.00,VWS V12.07,2013-07-25 20:06:00,
2013-07-25 15:12:00,81.6,61.2,30.07,SSW,207,2.0,5.0,50,0.00,,SKC,0.00,VWS V12.07,2013-07-25 20:12:00,
2013-07-25 15:19:00,81.8,61.4,30.07,SW,229,0.0,5.0,50,0.00,,SKC,0.00,VWS V12.07,2013-07-25 20:19:00,
2013-07-25 15:25:00,82.3,61.8,30.07,WSW,240,0.0,5.0,50,0.00,,SKC,0.00,VWS V12.07,2013-07-25 20:25:00,
2013-07-25 15:32:00,83.0,63.0,30.07,SSE,149,3.0,4.0,51,0.00,,SKC,0.00,VWS V12.07,2013-07-25 20:32:00,
2013-07-25 15:39:00,83.0,63.0,30.07,WSW,251,0.0,5.0,51,0.00,,SKC,0.00,VWS V12.07,2013-07-25 20:39:00,
2013-07-25 15:45:00,83.2,62.1,30.07,NNE,24,0.0,6.0,49,0.00,,SKC,0.00,VWS V12.07,2013-07-25 20:45:00,
2013-07-25 15:52:00,83.1,62.5,30.07,SE,126,3.0,8.0,50,0.00,,SKC,0.00,VWS V12.07,2013-07-25 20:52:00,
2013-07-25 15:59:00,82.3,62.4,30.07,SW,220,2.0,8.0,51,0.00,,SKC,0.00,VWS V12.07,2013-07-25 20:59:00,
2013-07-25 16:05:00,82.1,62.8,30.06,East,88,0.0,5.0,52,0.00,,SKC,0.00,VWS V12.07,2013-07-25 21:05:00,
2013-07-25 16:12:00,82.9,62.4,30.06,East,100,2.0,6.0,50,0.00,,SKC,0.00,VWS V12.07,2013-07-25 21:12:00,
2013-07-25 16:19:00,82.3,63.5,30.06,SSW,195,1.0,6.0,53,0.00,,SKC,0.00,VWS V12.07,2013-07-25 21:19:00,
2013-07-25 16:30:00,82.5,63.7,30.06,SE,139,1.0,6.0,53,0.00,,SKC,0.00,VWS V12.07,2013-07-25 21:30:00,
2013-07-25 16:37:00,83.6,63.0,30.06,ESE,114,2.0,4.0,50,0.00,,SKC,0.00,VWS V12.07,2013-07-25 21:37:00,
2013-07-25 16:44:00,82.5,62.6,30.06,SSE,150,0.0,5.0,51,0.00,,SKC,0.00,VWS V12.07,2013-07-25 21:44:00,
2013-07-25 16:54:00,81.9,64.2,30.06,WSW,240,2.0,6.0,55,0.00,,SKC,0.00,VWS V12.07,2013-07-25 21:54:00,
2013-07-25 17:00:00,82.7,63.3,30.05,SE,134,3.0,9.0,52,0.00,,SKC,0.00,VWS V12.07,2013-07-25 22:00:00,
2013-07-25 17:07:00,83.2,65.4,30.06,ESE,119,0.0,6.0,55,0.00,,SKC,0.00,VWS V12.07,2013-07-25 22:07:00,
2013-07-25 17:14:00,82.7,64.4,30.05,West,270,0.0,6.0,54,0.00,,SKC,0.00,VWS V12.07,2013-07-25 22:14:00,
2013-07-25 17:20:00,82.0,63.2,30.06,WSW,239,0.0,6.0,53,0.00,,SKC,0.00,VWS V12.07,2013-07-25 22:20:00,
2013-07-25 17:27:00,80.9,62.7,30.07,SE,133,1.0,6.0,54,0.00,,SKC,0.00,VWS V12.07,2013-07-25 22:27:00,
2013-07-25 17:34:00,80.3,63.7,30.06,SSW,212,1.0,7.0,57,0.00,,SKC,0.00,VWS V12.07,2013-07-25 22:34:00,
2013-07-25 17:39:00,80.2,63.6,30.07,South,179,2.0,7.0,57,0.00,,SKC,0.00,VWS V12.07,2013-07-25 22:39:00,
2013-07-25 17:44:00,80.9,63.2,30.07,SSW,207,2.0,7.0,55,0.00,,SKC,0.00,VWS V12.07,2013-07-25 22:44:00,
2013-07-25 17:50:00,82.1,63.8,30.06,SSE,158,1.0,7.0,54,0.00,,SKC,0.00,VWS V12.07,2013-07-25 22:50:00,
2013-07-25 17:59:00,82.2,62.3,30.06,NW,307,0.0,7.0,51,0.00,,SKC,0.00,VWS V12.07,2013-07-25 22:59:00,
2013-07-25 18:04:00,82.5,63.1,30.06,SW,235,1.0,2.0,52,0.00,,SKC,0.00,VWS V12.07,2013-07-25 23:04:00,
2013-07-25 18:09:00,83.2,63.2,30.06,WSW,256,2.0,3.0,51,0.00,,SKC,0.00,VWS V12.07,2013-07-25 23:09:00,
2013-07-25 18:15:00,82.5,62.0,30.06,South,188,1.0,6.0,50,0.00,,SKC,0.00,VWS V12.07,2013-07-25 23:15:00,
2013-07-25 18:24:00,80.7,62.0,30.05,SSW,210,0.0,6.0,53,0.00,,SKC,0.00,VWS V12.07,2013-07-25 23:24:00,
2013-07-25 18:32:00,79.7,63.1,30.05,SW,215,2.0,2.0,57,0.00,,SKC,0.00,VWS V12.07,2013-07-25 23:32:00,
2013-07-25 18:39:00,78.9,62.9,30.05,SE,143,0.0,3.0,58,0.00,,SKC,0.00,VWS V12.07,2013-07-25 23:39:00,
2013-07-25 18:45:00,78.5,63.0,30.05,SE,143,0.0,3.0,59,0.00,,SKC,0.00,VWS V12.07,2013-07-25 23:45:00,
2013-07-25 18:57:00,77.6,63.6,30.05,SE,126,0.0,0.0,62,0.00,,SKC,0.00,VWS V12.07,2013-07-25 23:57:00,
2013-07-25 19:03:00,77.2,63.6,30.05,South,174,0.0,0.0,63,0.00,,SKC,0.00,VWS V12.07,2013-07-26 00:03:00,
2013-07-25 19:09:00,76.9,63.4,30.05,South,174,0.0,0.0,63,0.00,,SKC,0.00,VWS V12.07,2013-07-26 00:09:00,
2013-07-25 19:19:00,76.3,63.7,30.05,SE,139,2.0,2.0,65,0.00,,SKC,0.00,VWS V12.07,2013-07-26 00:19:00,
2013-07-25 19:29:00,75.9,63.3,30.04,SE,135,0.0,2.0,65,0.00,,SKC,0.00,VWS V12.07,2013-07-26 00:29:00,
2013-07-25 19:35:00,75.6,63.5,30.04,SE,143,0.0,2.0,66,0.00,,SKC,0.00,VWS V12.07,2013-07-26 00:35:00,
2013-07-25 19:42:00,75.3,63.6,30.04,SSE,167,1.0,2.0,67,0.00,,SKC,0.00,VWS V12.07,2013-07-26 00:42:00,
2013-07-25 19:49:00,74.9,63.2,30.04,SSE,150,0.0,3.0,67,0.00,,SKC,0.00,VWS V12.07,2013-07-26 00:49:00,
2013-07-25 19:55:00,74.7,63.0,30.04,South,187,0.0,3.0,67,0.00,,SKC,0.00,VWS V12.07,2013-07-26 00:55:00,
2013-07-25 20:04:00,74.2,63.0,30.04,SSE,156,0.0,0.0,68,0.00,,SKC,0.00,VWS V12.07,2013-07-26 01:04:00,
2013-07-25 20:10:00,74.0,62.8,30.04,SSE,150,0.0,1.0,68,0.00,,SKC,0.00,VWS V12.07,2013-07-26 01:10:00,
2013-07-25 20:17:00,73.9,62.7,30.04,SE,138,0.0,2.0,68,0.00,,SKC,0.00,VWS V12.07,2013-07-26 01:17:00,
2013-07-25 20:24:00,73.6,62.4,30.04,SE,143,0.0,2.0,68,0.00,,SKC,0.00,VWS V12.07,2013-07-26 01:24:00,
2013-07-25 20:30:00,73.3,62.5,30.04,SE,145,0.0,2.0,69,0.00,,SKC,0.00,VWS V12.07,2013-07-26 01:30:00,
2013-07-25 20:37:00,72.9,62.1,30.04,SE,145,0.0,1.0,69,0.00,,SKC,0.00,VWS V12.07,2013-07-26 01:37:00,
2013-07-25 20:44:00,72.7,62.4,30.04,SE,145,0.0,1.0,70,0.00,,SKC,0.00,VWS V12.07,2013-07-26 01:44:00,
2013-07-25 20:50:00,72.6,62.3,30.05,SE,136,0.0,1.0,70,0.00,,SKC,0.00,VWS V12.07,2013-07-26 01:50:00,
2013-07-25 20:59:00,72.4,62.9,30.05,SE,136,1.0,1.0,72,0.00,,SKC,0.00,VWS V12.07,2013-07-26 01:59:00,
2013-07-25 21:05:00,72.1,62.6,30.05,SE,136,1.0,1.0,72,0.00,,SKC,0.00,VWS V12.07,2013-07-26 02:05:00,
2013-07-25 21:12:00,72.0,62.9,30.05,SE,136,1.0,1.0,73,0.00,,SKC,0.00,VWS V12.07,2013-07-26 02:12:00,
2013-07-25 21:19:00,71.8,63.1,30.05,SE,139,1.0,2.0,74,0.00,,SKC,0.00,VWS V12.07,2013-07-26 02:19:00,
2013-07-25 21:25:00,71.6,62.9,30.06,SE,138,0.0,2.0,74,0.00,,SKC,0.00,VWS V12.07,2013-07-26 02:25:00,
2013-07-25 21:34:00,71.4,63.1,30.06,SE,135,1.0,2.0,75,0.00,,SKC,0.00,VWS V12.07,2013-07-26 02:34:00,
2013-07-25 21:42:00,71.1,62.8,30.06,SE,136,0.0,2.0,75,0.00,,SKC,0.00,VWS V12.07,2013-07-26 02:42:00,
2013-07-25 21:49:00,71.0,63.1,30.06,SE,138,1.0,2.0,76,0.00,,SKC,0.00,VWS V12.07,2013-07-26 02:49:00,
2013-07-25 21:55:00,70.8,62.9,30.06,SE,135,1.0,4.0,76,0.00,,SKC,0.00,VWS V12.07,2013-07-26 02:55:00,
2013-07-25 22:05:00,70.5,63.0,30.06,SSE,160,2.0,2.0,77,0.00,,SKC,0.00,VWS V12.07,2013-07-26 03:05:00,
2013-07-25 22:12:00,70.2,63.0,30.06,SE,139,2.0,3.0,78,0.00,,SKC,0.00,VWS V12.07,2013-07-26 03:12:00,
2013-07-25 22:19:00,70.0,62.8,30.06,SE,134,3.0,4.0,78,0.00,,SKC,0.00,VWS V12.07,2013-07-26 03:19:00,
2013-07-25 22:26:00,69.9,62.7,30.06,SE,131,0.0,6.0,78,0.00,,SKC,0.00,VWS V12.07,2013-07-26 03:26:00,
2013-07-25 22:32:00,69.8,63.0,30.06,SSE,158,0.0,1.0,79,0.00,,SKC,0.00,VWS V12.07,2013-07-26 03:32:00,
2013-07-25 22:40:00,69.4,62.6,30.06,SSE,164,0.0,1.0,79,0.00,,SKC,0.00,VWS V12.07,2013-07-26 03:40:00,
2013-07-25 22:49:00,69.0,62.2,30.06,SSE,162,0.0,1.0,79,0.00,,SKC,0.00,VWS V12.07,2013-07-26 03:49:00,
2013-07-25 22:56:00,69.0,62.2,30.06,SE,141,0.0,1.0,79,0.00,,SKC,0.00,VWS V12.07,2013-07-26 03:56:00,
2013-07-25 23:04:00,68.9,62.1,30.06,SE,145,0.0,0.0,79,0.00,,SKC,0.00,VWS V12.07,2013-07-26 04:04:00,
2013-07-25 23:07:00,68.8,62.0,30.06,SSE,160,0.0,0.0,79,0.00,,SKC,0.00,VWS V12.07,2013-07-26 04:07:00,
2013-07-25 23:10:00,68.7,61.9,30.06,SSE,158,0.0,0.0,79,0.00,,SKC,0.00,VWS V12.07,2013-07-26 04:10:00,
2013-07-25 23:14:00,68.6,61.8,30.07,SSE,160,0.0,0.0,79,0.00,,SKC,0.00,VWS V12.07,2013-07-26 04:14:00,
2013-07-25 23:19:00,68.5,61.7,30.06,SSE,160,0.0,0.0,79,0.00,,SKC,0.00,VWS V12.07,2013-07-26 04:19:00,
2013-07-25 23:26:00,68.2,61.8,30.06,SSE,160,0.0,0.0,80,0.00,,SKC,0.00,VWS V12.07,2013-07-26 04:26:00,
2013-07-25 23:34:00,67.9,61.9,30.06,SSE,159,0.0,0.0,81,0.00,,SKC,0.00,VWS V12.07,2013-07-26 04:34:00,
2013-07-25 23:40:00,67.6,61.6,30.06,SSE,158,0.0,0.0,81,0.00,,SKC,0.00,VWS V12.07,2013-07-26 04:40:00,
2013-07-25 23:47:00,67.6,61.6,30.07,SSE,159,0.0,0.0,81,0.00,,SKC,0.00,VWS V12.07,2013-07-26 04:47:00,
2013-07-25 23:54:00,67.5,61.1,30.07,SSE,158,0.0,0.0,80,0.00,,SKC,0.00,VWS V12.07,2013-07-26 04:54:00,